createdAt,value
2023-01-04T00:01:25.791Z,20.10
2023-01-04T00:06:29.356Z,20.07
2023-01-04T00:11:32.885Z,20.04
2023-01-04T00:16:36.458Z,20.05
2023-01-04T00:21:40.317Z,20.03
2023-01-04T00:26:44.049Z,20.02
2023-01-04T00:31:47.775Z,20.01
2023-01-04T00:36:51.302Z,19.98
2023-01-04T00:42:05.103Z,19.98
2023-01-04T00:47:08.785Z,19.99
2023-01-04T00:52:12.317Z,19.98
2023-01-04T00:57:16.057Z,19.93
2023-01-04T01:02:19.677Z,19.87
2023-01-04T01:07:23.311Z,19.84
2023-01-04T01:12:26.888Z,19.83
2023-01-04T01:17:30.639Z,19.83
2023-01-04T01:22:34.137Z,19.82
2023-01-04T01:27:37.662Z,19.80
2023-01-04T01:32:41.158Z,19.77
2023-01-04T01:37:44.684Z,19.75
2023-01-04T01:42:48.479Z,19.75
2023-01-04T01:47:52.001Z,19.69
2023-01-04T01:52:55.515Z,19.65
2023-01-04T01:57:59.253Z,19.64
2023-01-04T02:03:04.944Z,19.62
2023-01-04T02:08:08.585Z,19.63
2023-01-04T02:13:12.094Z,19.58
2023-01-04T02:18:15.729Z,19.57
2023-01-04T02:23:19.228Z,19.56
2023-01-04T02:28:22.770Z,19.55
2023-01-04T02:33:26.264Z,19.54
2023-01-04T02:38:29.785Z,19.53
2023-01-04T02:43:50.872Z,19.50
2023-01-04T02:49:12.325Z,19.47
2023-01-04T02:54:15.959Z,19.46
2023-01-04T02:59:19.531Z,19.45
2023-01-04T03:04:40.739Z,19.45
2023-01-04T03:09:44.379Z,19.44
2023-01-04T03:14:47.890Z,19.42
2023-01-04T03:19:55.564Z,19.41
2023-01-04T03:25:25.532Z,19.40
2023-01-04T03:30:46.689Z,19.36
2023-01-04T03:35:50.212Z,19.34
2023-01-04T03:41:11.387Z,19.33
2023-01-04T03:46:32.663Z,19.31
2023-01-04T03:51:36.184Z,19.28
2023-01-04T03:56:41.760Z,19.28
2023-01-04T04:01:45.470Z,19.27
2023-01-04T04:07:06.954Z,19.26
2023-01-04T04:12:10.544Z,19.25
2023-01-04T04:17:14.045Z,19.23
2023-01-04T04:22:17.570Z,19.23
2023-01-04T04:27:21.118Z,19.21
2023-01-04T04:32:24.644Z,19.19
2023-01-04T04:37:31.919Z,19.19
2023-01-04T04:42:35.414Z,19.17
2023-01-04T04:47:38.997Z,19.19
2023-01-04T04:52:42.513Z,19.19
2023-01-04T04:57:46.060Z,19.14
2023-01-04T05:02:49.874Z,19.15
2023-01-04T05:07:53.646Z,19.14
2023-01-04T05:13:04.970Z,19.16
2023-01-04T05:18:08.490Z,19.15
2023-01-04T05:23:12.018Z,19.13
2023-01-04T05:28:15.658Z,19.11
2023-01-04T05:33:19.185Z,19.11
2023-01-04T05:38:22.722Z,19.08
2023-01-04T05:43:26.223Z,19.08
2023-01-04T05:48:29.778Z,19.06
2023-01-04T05:53:34.418Z,19.06
2023-01-04T05:58:37.995Z,19.06
2023-01-04T06:03:41.614Z,19.05
2023-01-04T06:08:45.434Z,19.02
2023-01-04T06:13:48.914Z,19.02
2023-01-04T06:18:52.541Z,18.99
2023-01-04T06:23:56.062Z,18.99
2023-01-04T06:28:59.606Z,18.95
2023-01-04T06:34:03.118Z,18.85
2023-01-04T06:39:06.626Z,18.90
2023-01-04T06:44:10.298Z,18.94
2023-01-04T06:49:14.510Z,18.89
2023-01-04T06:54:18.009Z,18.67
2023-01-04T06:59:21.505Z,18.63
2023-01-04T07:04:25.131Z,18.48
2023-01-04T07:09:29.824Z,18.61
2023-01-04T07:14:33.447Z,18.57
2023-01-04T07:19:36.965Z,18.65
2023-01-04T07:24:40.446Z,18.75
2023-01-04T07:29:44.302Z,18.68
2023-01-04T07:34:47.962Z,18.65
2023-01-04T07:39:51.774Z,18.73
2023-01-04T07:44:55.346Z,18.57
2023-01-04T07:50:00.222Z,18.50
2023-01-04T07:55:03.841Z,18.47
2023-01-04T08:00:07.360Z,18.60
2023-01-04T08:05:11.150Z,18.72
2023-01-04T08:10:14.953Z,18.69
2023-01-04T08:15:18.464Z,18.52
2023-01-04T08:35:25.186Z,18.56
2023-01-04T08:40:58.940Z,18.55
2023-01-04T08:45:52.157Z,18.52
2023-01-04T08:50:55.823Z,18.52
2023-01-04T08:56:00.935Z,18.50
2023-01-04T09:01:04.474Z,18.46
2023-01-04T09:06:08.068Z,18.41
2023-01-04T09:11:12.625Z,18.46
2023-01-04T09:16:16.986Z,18.56
2023-01-04T09:21:20.711Z,18.54
2023-01-04T09:26:24.334Z,18.57
2023-01-04T09:31:28.057Z,18.54
2023-01-04T09:36:31.819Z,18.51
2023-01-04T09:41:35.434Z,18.45
2023-01-04T09:46:39.115Z,18.44
2023-01-04T09:51:42.739Z,18.43
2023-01-04T09:56:46.368Z,18.66
2023-01-04T10:01:50.169Z,18.66
2023-01-04T10:06:57.053Z,16.56
2023-01-04T10:12:03.142Z,18.08
2023-01-04T10:17:14.106Z,18.53
2023-01-04T10:22:18.867Z,18.62
2023-01-04T10:27:22.412Z,18.64
2023-01-04T10:32:25.899Z,18.63
2023-01-04T10:37:29.427Z,18.49
2023-01-04T10:42:32.948Z,18.57
2023-01-04T10:47:36.510Z,18.68
2023-01-04T10:52:40.006Z,18.75
2023-01-04T10:57:43.524Z,18.88
2023-01-04T11:02:47.083Z,18.83
2023-01-04T11:07:50.770Z,18.50
2023-01-04T11:12:54.333Z,18.55
2023-01-04T11:17:58.898Z,18.62
2023-01-04T11:23:02.522Z,18.55
2023-01-04T11:28:06.304Z,18.37
2023-01-04T11:33:09.805Z,18.30
2023-01-04T11:38:13.432Z,18.22
2023-01-04T11:43:17.030Z,18.22
2023-01-04T11:48:20.542Z,18.33
2023-01-04T12:46:10.524Z,18.31
2023-01-04T12:51:31.094Z,18.21
2023-01-04T12:56:37.577Z,18.27
2023-01-04T13:01:41.184Z,18.29
2023-01-04T13:06:44.933Z,18.21
2023-01-04T13:11:48.530Z,18.13
2023-01-04T13:16:52.339Z,18.14
2023-01-04T13:21:57.043Z,18.06
2023-01-04T13:27:00.620Z,18.00
2023-01-04T13:32:04.320Z,17.92
2023-01-04T13:37:08.468Z,17.98
2023-01-04T13:42:12.094Z,18.06
2023-01-04T13:47:15.705Z,18.05
2023-01-04T13:52:47.307Z,17.99
2023-01-04T13:57:42.767Z,17.96
2023-01-04T14:02:46.549Z,18.14
2023-01-04T14:07:50.299Z,18.01
2023-01-04T14:12:53.957Z,17.94
2023-01-04T14:17:57.769Z,17.89
2023-01-04T14:23:01.475Z,17.90
2023-01-04T14:28:05.098Z,17.84
2023-01-04T14:33:08.633Z,17.80
2023-01-04T14:38:12.331Z,17.73
2023-01-04T14:43:15.972Z,17.63
2023-01-04T14:48:24.017Z,17.59
2023-01-04T14:53:27.857Z,17.66
2023-01-04T14:58:31.432Z,17.59
2023-01-04T15:03:35.328Z,17.54
2023-01-04T15:08:39.028Z,17.51
2023-01-04T15:13:42.568Z,17.53
2023-01-04T15:18:46.143Z,17.59
2023-01-04T15:23:51.701Z,17.43
2023-01-04T15:28:55.231Z,17.43
2023-01-04T15:33:58.850Z,17.42
2023-01-04T15:39:02.395Z,17.39
2023-01-04T15:44:05.978Z,17.37
2023-01-04T15:49:16.841Z,17.31
2023-01-04T15:54:22.171Z,17.33
2023-01-04T15:59:25.849Z,17.42
2023-01-04T16:04:29.462Z,17.28
2023-01-04T16:09:33.292Z,17.23
2023-01-04T16:14:36.986Z,17.26
2023-01-04T16:19:40.542Z,17.26
2023-01-04T16:30:07.789Z,17.31
2023-01-04T16:35:11.608Z,17.29
2023-01-04T16:40:15.245Z,17.19
2023-01-04T16:45:18.871Z,17.18
2023-01-04T16:50:22.421Z,17.08
2023-01-04T16:55:26.223Z,17.06
2023-01-04T17:00:29.842Z,17.29
2023-01-04T17:05:33.539Z,17.14
2023-01-04T17:10:37.096Z,17.24
2023-01-04T17:15:43.456Z,17.20
2023-01-04T17:20:47.643Z,17.21
2023-01-04T17:25:51.179Z,17.26
2023-01-04T17:30:54.952Z,17.28
2023-01-04T17:35:58.899Z,17.32
2023-01-04T17:41:02.442Z,17.36
2023-01-04T17:46:06.219Z,17.38
2023-01-04T17:51:09.836Z,17.47
2023-01-04T18:01:22.058Z,17.64
2023-01-04T18:06:27.371Z,17.70
2023-01-04T18:11:31.155Z,17.85
2023-01-04T18:16:54.866Z,17.88
2023-01-04T18:21:58.871Z,18.28
2023-01-04T18:27:21.032Z,18.53
2023-01-04T18:32:26.051Z,18.46
2023-01-04T18:37:29.589Z,18.57
2023-01-04T18:42:33.167Z,18.62
2023-01-04T18:47:36.789Z,18.71
2023-01-04T18:52:40.389Z,18.86
2023-01-04T18:57:43.979Z,18.92
2023-01-04T19:02:47.706Z,18.96
2023-01-04T19:07:51.523Z,19.13
2023-01-04T19:12:55.303Z,19.16
2023-01-04T19:17:58.938Z,19.13
2023-01-04T19:23:02.659Z,19.19
2023-01-04T19:28:06.385Z,19.21
2023-01-04T19:33:10.467Z,19.20
2023-01-04T19:38:14.078Z,19.27
2023-01-04T19:43:17.589Z,19.37
2023-01-04T19:48:23.908Z,19.41
2023-01-04T19:53:27.471Z,19.36
2023-01-04T19:58:30.994Z,19.49
2023-01-04T20:03:34.802Z,19.44
2023-01-04T20:08:38.539Z,19.41
2023-01-04T20:13:42.102Z,19.41
2023-01-04T20:18:45.642Z,19.44
2023-01-04T20:23:49.211Z,19.44
2023-01-04T20:28:52.887Z,19.57
2023-01-04T20:33:56.415Z,19.48
2023-01-04T20:39:00.535Z,19.44
2023-01-04T20:44:04.337Z,19.52
2023-01-04T20:49:07.939Z,19.52
2023-01-04T20:54:12.110Z,19.53
2023-01-04T20:59:15.634Z,19.41
2023-01-04T21:04:19.205Z,19.45
2023-01-04T21:09:22.814Z,19.44
2023-01-04T21:14:26.470Z,19.41
2023-01-04T21:19:30.148Z,19.56
2023-01-04T21:24:34.157Z,19.62
2023-01-04T21:29:38.729Z,19.72
2023-01-04T21:34:42.365Z,19.67
2023-01-04T21:39:45.920Z,19.70
2023-01-04T21:44:49.562Z,19.79
2023-01-04T21:49:53.122Z,19.69
2023-01-04T21:54:56.764Z,19.63
2023-01-04T22:00:00.304Z,19.71
2023-01-04T22:05:03.999Z,19.60
2023-01-04T22:10:07.709Z,19.56
2023-01-04T22:15:11.268Z,19.57
2023-01-04T22:20:14.789Z,19.56
2023-01-04T22:25:18.340Z,19.63
2023-01-04T22:30:21.889Z,19.72
2023-01-04T22:35:25.451Z,19.79
2023-01-04T22:40:29.036Z,19.72
2023-01-04T22:45:32.701Z,19.76
2023-01-04T22:50:36.265Z,19.74
2023-01-04T22:56:17.101Z,19.74
2023-01-04T23:01:03.519Z,19.74
2023-01-04T23:06:07.401Z,19.75
2023-01-04T23:11:10.978Z,19.77
2023-01-04T23:16:14.605Z,19.79
2023-01-04T23:21:18.319Z,19.77
2023-01-04T23:26:21.908Z,19.78
2023-01-04T23:31:25.479Z,19.78
2023-01-04T23:36:29.137Z,19.80
2023-01-04T23:41:48.281Z,19.81
2023-01-04T23:46:51.889Z,19.79
2023-01-04T23:51:55.499Z,19.79
2023-01-04T23:56:59.700Z,19.80
